createdAt,value
2018-10-16T00:01:55.824Z,100054.02
2018-10-16T00:07:14.481Z,100057.60
2018-10-16T00:12:33.091Z,100058.13
2018-10-16T00:17:51.700Z,100072.14
2018-10-16T00:23:11.250Z,100069.48
2018-10-16T00:28:29.804Z,100073.36
2018-10-16T00:33:48.430Z,100078.27
2018-10-16T00:39:10.891Z,100080.70
2018-10-16T00:44:30.075Z,100087.05
2018-10-16T00:49:48.697Z,100085.63
2018-10-16T00:55:08.328Z,100085.22
2018-10-16T01:00:26.892Z,100086.95
2018-10-16T01:05:46.455Z,100095.72
2018-10-16T01:11:08.414Z,100098.09
2018-10-16T01:16:27.019Z,100103.50
2018-10-16T01:21:45.637Z,100109.64
2018-10-16T01:27:04.227Z,100105.44
2018-10-16T01:32:23.074Z,100103.50
2018-10-16T01:37:42.134Z,100109.01
2018-10-16T01:43:00.667Z,100106.98
2018-10-16T01:48:19.196Z,100108.92
2018-10-16T01:53:38.399Z,100101.58
2018-10-16T01:58:57.023Z,100105.66
2018-10-16T02:04:15.690Z,100105.25
2018-10-16T02:09:34.220Z,100105.28
2018-10-16T02:14:52.800Z,100102.30
2018-10-16T02:20:11.417Z,100111.09
2018-10-16T02:25:30.025Z,100105.77
2018-10-16T02:30:48.828Z,100107.20
2018-10-16T02:36:07.427Z,100112.95
2018-10-16T02:41:25.970Z,100119.59
2018-10-16T02:46:44.469Z,100117.55
2018-10-16T02:52:03.038Z,100119.08
2018-10-16T02:57:21.743Z,100119.17
2018-10-16T03:02:40.397Z,100115.27
2018-10-16T03:07:58.970Z,100124.81
2018-10-16T03:13:17.634Z,100125.41
2018-10-16T03:18:36.222Z,100121.34
2018-10-16T03:23:54.810Z,100127.55
2018-10-16T03:29:13.420Z,100129.59
2018-10-16T03:34:32.030Z,100128.40
2018-10-16T03:39:50.768Z,100136.05
2018-10-16T03:45:11.340Z,100134.62
2018-10-16T03:50:29.906Z,100141.95
2018-10-16T03:55:48.419Z,100148.75
2018-10-16T04:01:07.680Z,100145.34
2018-10-16T04:06:26.274Z,100147.07
2018-10-16T04:11:44.870Z,100153.64
2018-10-16T04:17:03.482Z,100159.14
2018-10-16T04:22:22.089Z,100159.95
2018-10-16T04:27:40.753Z,100162.20
2018-10-16T04:32:59.325Z,100169.58
2018-10-16T04:38:17.924Z,100168.65
2018-10-16T04:43:37.155Z,100170.19
2018-10-16T04:48:56.365Z,100180.42
2018-10-16T04:54:14.867Z,100185.12
2018-10-16T04:59:34.026Z,100181.34
2018-10-16T05:04:52.897Z,100182.13
2018-10-16T05:10:11.464Z,100182.87
2018-10-16T05:15:31.286Z,100185.64
2018-10-16T05:20:49.981Z,100191.25
2018-10-16T05:26:08.661Z,100193.84
2018-10-16T05:31:27.685Z,100191.16
2018-10-16T05:36:46.062Z,100195.26
2018-10-16T05:42:04.992Z,100200.39
2018-10-16T05:47:23.716Z,100197.81
2018-10-16T05:52:42.270Z,100204.56
2018-10-16T05:58:01.442Z,100204.70
2018-10-16T06:03:20.100Z,100213.27
2018-10-16T06:08:38.811Z,100218.80
2018-10-16T06:13:57.349Z,100225.06
2018-10-16T06:19:15.986Z,100228.52
2018-10-16T06:24:35.101Z,100237.44
2018-10-16T06:29:54.410Z,100243.38
2018-10-16T06:35:14.503Z,100245.94
2018-10-16T06:40:33.188Z,100249.80
2018-10-16T06:45:51.780Z,100255.73
2018-10-16T06:51:10.360Z,100251.91
2018-10-16T06:56:28.898Z,100253.64
2018-10-16T07:01:47.451Z,100260.39
2018-10-16T07:07:07.160Z,100260.20
2018-10-16T07:12:25.601Z,100256.77
2018-10-16T07:17:44.327Z,100262.23
2018-10-16T07:23:02.946Z,100266.75
2018-10-16T07:28:21.577Z,100277.17
2018-10-16T07:33:40.994Z,100274.16
2018-10-16T07:38:59.769Z,100278.94
2018-10-16T07:44:18.163Z,100282.05
2018-10-16T07:49:37.124Z,100280.44
2018-10-16T07:54:55.695Z,100282.46
2018-10-16T08:00:14.300Z,100275.86
2018-10-16T08:05:33.024Z,100263.41
2018-10-16T08:10:52.839Z,100265.11
2018-10-16T08:16:11.423Z,100274.18
2018-10-16T08:21:30.072Z,100264.86
2018-10-16T08:26:48.853Z,100272.59
2018-10-16T08:32:07.465Z,100265.80
2018-10-16T08:38:34.994Z,100274.50
2018-10-16T08:44:37.476Z,100278.52
2018-10-16T08:50:07.378Z,100271.92
2018-10-16T08:55:25.974Z,100272.34
2018-10-16T09:00:44.650Z,100255.05
2018-10-16T09:06:03.239Z,100270.11
2018-10-16T09:11:22.781Z,100282.39
2018-10-16T09:16:42.992Z,100277.05
2018-10-16T09:22:01.626Z,100285.95
2018-10-16T09:27:20.260Z,100280.91
2018-10-16T09:32:39.200Z,100283.78
2018-10-16T09:37:57.892Z,100285.67
2018-10-16T09:43:16.404Z,100282.45
2018-10-16T09:48:35.883Z,100287.43
2018-10-16T09:53:54.640Z,100288.78
2018-10-16T09:59:13.718Z,100287.97
2018-10-16T10:04:32.927Z,100283.12
2018-10-16T10:09:51.612Z,100283.47
2018-10-16T10:15:10.260Z,100284.27
2018-10-16T10:20:28.852Z,100285.38
2018-10-16T10:25:47.412Z,100287.05
2018-10-16T10:31:06.367Z,100284.37
2018-10-16T10:36:24.995Z,100285.39
2018-10-16T10:41:43.715Z,100282.02
2018-10-16T10:47:02.443Z,100275.03
2018-10-16T10:52:21.019Z,100270.73
2018-10-16T10:57:39.989Z,100268.94
2018-10-16T11:02:58.659Z,100262.53
2018-10-16T11:08:18.368Z,100264.98
2018-10-16T11:13:37.369Z,100267.98
2018-10-16T11:18:57.442Z,100253.41
2018-10-16T11:24:15.988Z,100262.33
2018-10-16T11:29:34.547Z,100263.20
2018-10-16T11:34:53.152Z,100256.44
2018-10-16T11:40:12.706Z,100258.30
2018-10-16T11:45:31.258Z,100257.22
2018-10-16T11:50:51.060Z,100259.66
2018-10-16T11:56:11.855Z,100262.16
2018-10-16T12:01:31.090Z,100260.80
2018-10-16T12:06:49.655Z,100258.11
2018-10-16T12:12:08.318Z,100264.59
2018-10-16T12:19:38.026Z,100257.82
2018-10-16T12:24:56.549Z,100259.98
2018-10-16T12:30:15.071Z,100260.78
2018-10-16T12:35:33.642Z,100257.53
2018-10-16T12:40:52.171Z,100258.34
2018-10-16T12:46:11.090Z,100256.73
2018-10-16T12:51:29.764Z,100251.59
2018-10-16T12:56:48.771Z,100255.35
2018-10-16T13:02:07.523Z,100252.91
2018-10-16T13:07:32.858Z,100258.34
2018-10-16T13:12:51.397Z,100253.20
2018-10-16T13:18:09.991Z,100253.97
2018-10-16T13:23:28.630Z,100248.03
2018-10-16T13:28:47.238Z,100243.44
2018-10-16T13:34:06.439Z,100240.22
2018-10-16T13:39:24.931Z,100242.89
2018-10-16T13:44:43.432Z,100242.63
2018-10-16T13:50:02.234Z,100249.15
2018-10-16T13:55:20.845Z,100242.68
2018-10-16T14:00:39.411Z,100240.77
2018-10-16T14:05:57.966Z,100247.83
2018-10-16T14:11:16.746Z,100244.03
2018-10-16T14:16:36.424Z,100248.34
2018-10-16T14:21:55.108Z,100248.34
2018-10-16T14:27:13.669Z,100239.97
2018-10-16T14:32:32.213Z,100240.77
2018-10-16T14:37:51.513Z,100244.84
2018-10-16T14:43:10.030Z,100246.48
2018-10-16T14:48:28.645Z,100244.27
2018-10-16T14:53:47.213Z,100240.19
2018-10-16T14:59:05.895Z,100241.27
2018-10-16T15:04:24.459Z,100235.28
2018-10-16T15:09:43.047Z,100235.48
2018-10-16T15:15:02.710Z,100233.54
2018-10-16T15:20:22.150Z,100233.47
2018-10-16T15:25:40.786Z,100235.02
2018-10-16T15:31:00.562Z,100230.68
2018-10-16T15:36:19.351Z,100226.88
2018-10-16T15:41:38.403Z,100228.23
2018-10-16T15:46:58.630Z,100233.10
2018-10-16T15:52:17.291Z,100231.17
2018-10-16T15:57:35.964Z,100241.13
2018-10-16T16:02:55.074Z,100246.08
2018-10-16T16:08:15.211Z,100244.05
2018-10-16T16:13:33.782Z,100245.83
2018-10-16T16:18:52.385Z,100249.94
2018-10-16T16:24:11.178Z,100246.22
2018-10-16T16:29:30.473Z,100255.50
2018-10-16T16:34:49.044Z,100255.25
2018-10-16T16:40:09.600Z,100267.67
2018-10-16T16:45:28.104Z,100268.28
2018-10-16T16:50:47.142Z,100269.95
2018-10-16T16:56:06.313Z,100275.30
2018-10-16T17:01:24.811Z,100275.86
2018-10-16T17:06:43.599Z,100277.05
2018-10-16T17:12:02.099Z,100278.69
2018-10-16T17:17:21.460Z,100280.75
2018-10-16T17:22:40.201Z,100283.80
2018-10-16T17:27:58.910Z,100287.39
2018-10-16T17:33:17.656Z,100296.59
2018-10-16T17:38:36.408Z,100298.30
2018-10-16T17:43:55.687Z,100299.56
2018-10-16T17:49:14.357Z,100304.11
2018-10-16T17:54:32.938Z,100306.98
2018-10-16T17:59:51.684Z,100308.64
2018-10-16T18:05:10.450Z,100307.98
2018-10-16T18:10:29.731Z,100314.06
2018-10-16T18:15:49.011Z,100305.92
2018-10-16T18:21:07.858Z,100309.52
2018-10-16T18:26:27.171Z,100316.18
2018-10-16T18:31:45.797Z,100311.11
2018-10-16T18:37:04.628Z,100320.16
2018-10-16T18:42:23.351Z,100318.36
2018-10-16T18:47:42.254Z,100318.02
2018-10-16T18:53:00.943Z,100311.89
2018-10-16T18:58:19.473Z,100316.17
2018-10-16T19:03:38.024Z,100313.23
2018-10-16T19:08:56.594Z,100320.33
2018-10-16T19:14:15.092Z,100320.49
2018-10-16T19:19:33.603Z,100323.78
2018-10-16T19:24:52.370Z,100322.99
2018-10-16T19:30:12.177Z,100319.00
2018-10-16T19:35:31.619Z,100319.58
2018-10-16T19:40:50.149Z,100319.12
2018-10-16T19:46:08.693Z,100325.44
2018-10-16T19:51:27.236Z,100327.23
2018-10-16T19:56:45.795Z,100324.68
2018-10-16T20:02:04.919Z,100336.53
2018-10-16T20:07:23.508Z,100341.06
2018-10-16T20:12:42.619Z,100340.55
2018-10-16T20:18:02.763Z,100337.56
2018-10-16T20:23:23.211Z,100337.34
2018-10-16T20:28:41.779Z,100345.57
2018-10-16T20:34:00.477Z,100343.14
2018-10-16T20:39:19.061Z,100341.94
2018-10-16T20:44:37.625Z,100340.91
2018-10-16T20:49:56.294Z,100339.77
2018-10-16T20:55:14.852Z,100343.33
2018-10-16T21:00:33.608Z,100341.24
2018-10-16T21:05:52.305Z,100331.75
2018-10-16T21:11:10.768Z,100339.46
2018-10-16T21:16:29.306Z,100340.05
2018-10-16T21:21:47.855Z,100336.27
2018-10-16T21:27:13.603Z,100326.23
2018-10-16T21:32:32.090Z,100334.18
2018-10-16T21:37:50.648Z,100327.56
2018-10-16T21:43:09.244Z,100328.02
2018-10-16T21:48:27.998Z,100326.36
2018-10-16T21:53:46.524Z,100322.41
2018-10-16T21:59:07.132Z,100323.70
2018-10-16T22:04:25.620Z,100318.55
2018-10-16T22:09:44.223Z,100320.87
2018-10-16T22:15:02.809Z,100321.51
2018-10-16T22:20:21.322Z,100313.55
2018-10-16T22:25:39.924Z,100321.22
2018-10-16T22:30:58.443Z,100318.86
2018-10-16T22:36:16.962Z,100309.00
2018-10-16T22:41:35.470Z,100306.28
2018-10-16T22:46:54.002Z,100301.54
2018-10-16T22:52:12.526Z,100302.53
2018-10-16T22:57:31.054Z,100295.94
2018-10-16T23:02:50.155Z,100295.98
2018-10-16T23:08:08.745Z,100296.44
2018-10-16T23:13:27.312Z,100300.64
2018-10-16T23:18:45.871Z,100300.64
2018-10-16T23:24:04.423Z,100297.38
2018-10-16T23:29:22.981Z,100293.30
2018-10-16T23:34:41.531Z,100285.95
2018-10-16T23:40:00.114Z,100287.63
2018-10-16T23:45:18.615Z,100289.92
2018-10-16T23:50:37.240Z,100282.85
2018-10-16T23:55:55.791Z,100279.53
